| time (UTC) | temp C | wind direction | speed KPH | gust KPH | rain 1hr cm | rain 24hr cm | rain mn cm | humidity % | barometer mb |
| 20260510190716 | 26 | 321 | 3.2 | 4.8 | 0.00 | 0.00 | 0.00 | 60 | 1011.4 |
| 20260510190213 | 26 | 330 | 9.7 | 12.9 | 0.00 | 0.00 | 0.00 | 60 | 1011.5 |
| 20260510185710 | 25 | 30 | 0.0 | 0.0 | 0.00 | 0.00 | 0.00 | 60 | 1011.5 |
| 20260510185209 | 26 | 312 | 6.4 | 6.4 | 0.00 | 0.00 | 0.00 | 63 | 1011.5 |
| 20260510184704 | 25 | 61 | 3.2 | 3.2 | 0.00 | 0.00 | 0.00 | 62 | 1011.4 |
| 20260510184201 | 25 | 28 | 3.2 | 4.8 | 0.00 | 0.00 | 0.00 | 62 | 1011.5 |
| 20260510183656 | 26 | 342 | 4.8 | 4.8 | 0.00 | 0.00 | 0.00 | 63 | 1011.4 |
| 20260510183151 | 25 | 39 | 3.2 | 3.2 | 0.00 | 0.00 | 0.00 | 61 | 1011.4 |
| 20260510182648 | 25 | 349 | 6.4 | 6.4 | 0.00 | 0.00 | 0.00 | 61 | 1011.3 |
| 20260510182143 | 25 | 245 | 0.0 | 1.6 | 0.00 | 0.00 | 0.00 | 64 | 1011.4 |
| 20260510181641 | 25 | 291 | 4.8 | 4.8 | 0.00 | 0.00 | 0.00 | 64 | 1011.5 |
| 20260510181137 | 25 | 8 | 9.7 | 12.9 | 0.00 | 0.00 | 0.00 | 59 | 1011.3 |
| 20260510180633 | 26 | 343 | 6.4 | 6.4 | 0.00 | 0.00 | 0.00 | 61 | 1011.3 |
| 20260510180131 | 25 | 273 | 1.6 | 3.2 | 0.00 | 0.00 | 0.00 | 59 | 1011.4 |
| 20260510175627 | 25 | 338 | 8.0 | 11.3 | 0.00 | 0.00 | 0.00 | 62 | 1011.2 |
| 20260510175122 | 25 | 262 | 1.6 | 1.6 | 0.00 | 0.00 | 0.00 | 58 | 1011.4 |
| 20260510174620 | 25 | 336 | 9.7 | 11.3 | 0.00 | 0.00 | 0.00 | 59 | 1011.4 |
| 20260510174118 | 25 | 19 | 4.8 | 4.8 | 0.00 | 0.00 | 0.00 | 61 | 1011.3 |
| 20260510173613 | 25 | 40 | 4.8 | 4.8 | 0.00 | 0.00 | 0.00 | 59 | 1011.4 |
| 20260510173110 | 25 | 17 | 6.4 | 9.7 | 0.00 | 0.00 | 0.00 | 58 | 1011.3 |
| 20260510172605 | 25 | 0 | 4.8 | 4.8 | 0.00 | 0.00 | 0.00 | 61 | 1011.6 |
| 20260510172102 | 25 | 267 | 4.8 | 9.7 | 0.00 | 0.00 | 0.00 | 61 | 1011.5 |
| 20260510171559 | 25 | 353 | 8.0 | 11.3 | 0.00 | 0.00 | 0.00 | 60 | 1011.6 |
| 20260510171056 | 25 | 42 | 4.8 | 4.8 | 0.00 | 0.00 | 0.00 | 62 | 1011.7 |
| 20260510170553 | 25 | 14 | 6.4 | 9.7 | 0.00 | 0.00 | 0.00 | 60 | 1011.8 |
| 20260510170049 | 25 | 358 | 6.4 | 6.4 | 0.00 | 0.00 | 0.00 | 65 | 1011.7 |
| 20260510165545 | 25 | 355 | 3.2 | 9.7 | 0.00 | 0.00 | 0.00 | 64 | 1011.9 |
| 20260510165041 | 25 | 4 | 6.4 | 6.4 | 0.00 | 0.00 | 0.00 | 65 | 1011.6 |
| 20260510164538 | 25 | 352 | 8.0 | 9.7 | 0.00 | 0.00 | 0.00 | 64 | 1012.0 |
| 20260510164034 | 25 | 331 | 6.4 | 11.3 | 0.00 | 0.00 | 0.00 | 62 | 1011.7 |
| 20260510163524 | 25 | 19 | 9.7 | 12.9 | 0.00 | 0.00 | 0.00 | 62 | 1011.8 |
| 20260510163020 | 25 | 284 | 4.8 | 6.4 | 0.00 | 0.00 | 0.00 | 62 | 1011.7 |
| 20260510162510 | 25 | 334 | 9.7 | 11.3 | 0.00 | 0.00 | 0.00 | 62 | 1011.8 |
| 20260510162007 | 25 | 18 | 3.2 | 4.8 | 0.00 | 0.00 | 0.00 | 64 | 1011.7 |
| 20260510161503 | 25 | 319 | 4.8 | 6.4 | 0.00 | 0.00 | 0.00 | 66 | 1011.8 |
| 20260510160959 | 25 | 318 | 6.4 | 6.4 | 0.00 | 0.00 | 0.00 | 60 | 1011.5 |
| 20260510160451 | 25 | 230 | 3.2 | 4.8 | 0.00 | 0.00 | 0.00 | 60 | 1011.7 |
| 20260510155948 | 25 | 332 | 6.4 | 6.4 | 0.00 | 0.00 | 0.00 | 59 | 1011.6 |
| 20260510155446 | 25 | 302 | 4.8 | 4.8 | 0.00 | 0.00 | 0.00 | 59 | 1011.8 |
| 20260510154943 | 25 | 6 | 6.4 | 6.4 | 0.00 | 0.00 | 0.00 | 57 | 1011.4 |
| 20260510154438 | 25 | 301 | 4.8 | 6.4 | 0.00 | 0.00 | 0.00 | 56 | 1011.6 |
| 20260510153932 | 25 | 335 | 4.8 | 6.4 | 0.00 | 0.00 | 0.00 | 59 | 1011.4 |
| 20260510153429 | 25 | 306 | 6.4 | 9.7 | 0.00 | 0.00 | 0.00 | 59 | 1011.4 |
| 20260510152925 | 25 | 274 | 8.0 | 11.3 | 0.00 | 0.00 | 0.00 | 58 | 1011.5 |
| 20260510152423 | 25 | 262 | 3.2 | 3.2 | 0.00 | 0.00 | 0.00 | 56 | 1011.3 |
| 20260510151920 | 25 | 304 | 0.0 | 1.6 | 0.00 | 0.00 | 0.00 | 60 | 1011.1 |
| 20260510151417 | 25 | 288 | 4.8 | 6.4 | 0.00 | 0.00 | 0.00 | 56 | 1011.2 |
| 20260510150913 | 25 | 269 | 1.6 | 3.2 | 0.00 | 0.00 | 0.00 | 58 | 1011.1 |
| 20260510150409 | 25 | 255 | 1.6 | 3.2 | 0.00 | 0.00 | 0.00 | 59 | 1010.9 |
| 20260510145904 | 25 | 249 | 1.6 | 1.6 | 0.00 | 0.00 | 0.00 | 59 | 1011.0 |
| 20260510145400 | 25 | 326 | 4.8 | 4.8 | 0.00 | 0.00 | 0.00 | 58 | 1011.0 |
| 20260510144857 | 25 | 11 | 1.6 | 3.2 | 0.00 | 0.00 | 0.00 | 58 | 1010.9 |
| 20260510144354 | 25 | 231 | 0.0 | 0.0 | 0.00 | 0.00 | 0.00 | 58 | 1010.7 |
| 20260510143849 | 24 | 260 | 1.6 | 3.2 | 0.00 | 0.00 | 0.00 | 57 | 1010.9 |
| 20260510143345 | 24 | 290 | 3.2 | 3.2 | 0.00 | 0.00 | 0.00 | 58 | 1011.0 |
| 20260510142843 | 24 | 308 | 3.2 | 3.2 | 0.00 | 0.00 | 0.00 | 56 | 1011.0 |
| 20260510142339 | 25 | 252 | 4.8 | 4.8 | 0.00 | 0.00 | 0.00 | 56 | 1010.8 |
| 20260510141836 | 25 | 245 | 3.2 | 4.8 | 0.00 | 0.00 | 0.00 | 57 | 1010.8 |
| 20260510141334 | 25 | 251 | 1.6 | 3.2 | 0.00 | 0.00 | 0.00 | 57 | 1010.8 |
| 20260510140831 | 24 | 276 | 3.2 | 3.2 | 0.00 | 0.00 | 0.00 | 59 | 1010.6 |
| 20260510140326 | 23 | 268 | 3.2 | 3.2 | 0.00 | 0.00 | 0.00 | 60 | 1010.6 |
| 20260510135820 | 23 | 210 | 3.2 | 4.8 | 0.00 | 0.00 | 0.00 | 64 | 1010.6 |
| 20260510135316 | 23 | 198 | 1.6 | 1.6 | 0.00 | 0.00 | 0.00 | 70 | 1010.6 |
| 20260510134814 | 23 | 169 | 1.6 | 1.6 | 0.00 | 0.00 | 0.00 | 71 | 1010.6 |
| 20260510134310 | 23 | 172 | 3.2 | 3.2 | 0.00 | 0.00 | 0.00 | 71 | 1010.6 |
| 20260510133806 | 22 | 202 | 1.6 | 1.6 | 0.00 | 0.00 | 0.00 | 73 | 1010.3 |
| 20260510133302 | 22 | 200 | 1.6 | 1.6 | 0.00 | 0.00 | 0.00 | 73 | 1010.4 |
| 20260510132758 | 22 | 198 | 0.0 | 0.0 | 0.00 | 0.00 | 0.00 | 77 | 1010.5 |
| 20260510132256 | 22 | 200 | 0.0 | 0.0 | 0.00 | 0.00 | 0.00 | 73 | 1010.7 |
| 20260510131753 | 21 | 191 | 0.0 | 0.0 | 0.00 | 0.00 | 0.00 | 74 | 1010.7 |
| 20260510131251 | 20 | 184 | 0.0 | 0.0 | 0.00 | 0.00 | 0.00 | 78 | 1010.6 |
| 20260510130747 | 20 | 182 | 0.0 | 1.6 | 0.00 | 0.00 | 0.00 | 79 | 1010.6 |
| 20260510130243 | 20 | 200 | 1.6 | 1.6 | 0.00 | 0.00 | 0.00 | 79 | 1010.7 |
| 20260510125734 | 18 | 208 | 0.0 | 0.0 | 0.00 | 0.00 | 0.00 | 84 | 1010.6 |
| 20260510125230 | 18 | 99 | 1.6 | 3.2 | 0.00 | 0.00 | 0.00 | 86 | 1010.4 |
| 20260510124727 | 17 | 165 | 1.6 | 1.6 | 0.00 | 0.00 | 0.00 | 84 | 1010.6 |
| 20260510124225 | 17 | 236 | 0.0 | 0.0 | 0.00 | 0.00 | 0.00 | 83 | 1010.9 |
| 20260510123720 | 17 | 236 | 0.0 | 0.0 | 0.00 | 0.00 | 0.00 | 84 | 1010.7 |
| 20260510123216 | 17 | 211 | 0.0 | 0.0 | 0.00 | 0.00 | 0.00 | 84 | 1010.5 |
| 20260510122712 | 17 | 211 | 0.0 | 1.6 | 0.00 | 0.00 | 0.00 | 83 | 1010.6 |
| 20260510122209 | 17 | 218 | 0.0 | 0.0 | 0.00 | 0.00 | 0.00 | 83 | 1010.3 |
| 20260510121705 | 16 | 219 | 0.0 | 0.0 | 0.00 | 0.00 | 0.00 | 86 | 1010.3 |
| 20260510121203 | 15 | 204 | 0.0 | 0.0 | 0.00 | 0.00 | 0.00 | 87 | 1010.4 |
| 20260510120659 | 15 | 199 | 1.6 | 1.6 | 0.00 | 0.00 | 0.00 | 88 | 1010.4 |
| 20260510120155 | 15 | 222 | 0.0 | 0.0 | 0.00 | 0.00 | 0.00 | 88 | 1010.5 |
| 20260510115646 | 15 | 222 | 0.0 | 1.6 | 0.00 | 0.00 | 0.00 | 88 | 1010.5 |
| 20260510115144 | 14 | 243 | 0.0 | 0.0 | 0.00 | 0.00 | 0.00 | 88 | 1010.6 |
| 20260510114640 | 15 | 219 | 0.0 | 0.0 | 0.00 | 0.00 | 0.00 | 90 | 1010.3 |
| 20260510114137 | 14 | 159 | 0.0 | 0.0 | 0.00 | 0.00 | 0.00 | 91 | 1010.1 |
| 20260510113631 | 13 | 159 | 0.0 | 0.0 | 0.00 | 0.00 | 0.00 | 92 | 1009.9 |
| 20260510113129 | 13 | 198 | 0.0 | 0.0 | 0.00 | 0.00 | 0.00 | 94 | 1010.0 |
| 20260510112626 | 12 | 202 | 1.6 | 1.6 | 0.00 | 0.00 | 0.00 | 94 | 1009.7 |
| 20260510112122 | 12 | 204 | 0.0 | 1.6 | 0.00 | 0.00 | 0.00 | 94 | 1009.4 |
| 20260510111618 | 12 | 213 | 1.6 | 3.2 | 0.00 | 0.00 | 0.00 | 94 | 1009.6 |
| 20260510111114 | 12 | 207 | 0.0 | 0.0 | 0.00 | 0.00 | 0.00 | 94 | 1009.6 |
| 20260510110610 | 12 | 170 | 0.0 | 0.0 | 0.00 | 0.00 | 0.00 | 94 | 1009.3 |
| 20260510110108 | 12 | 224 | 0.0 | 0.0 | 0.00 | 0.00 | 0.00 | 93 | 1009.5 |
| 20260510105603 | 12 | 304 | 0.0 | 0.0 | 0.00 | 0.00 | 0.00 | 93 | 1009.3 |
| 20260510105057 | 12 | 209 | 0.0 | 0.0 | 0.00 | 0.00 | 0.00 | 93 | 1009.2 |
| 20260510104555 | 12 | 210 | 0.0 | 0.0 | 0.00 | 0.00 | 0.00 | 92 | 1009.2 |
| 20260510104051 | 12 | 208 | 0.0 | 0.0 | 0.00 | 0.00 | 0.00 | 91 | 1009.2 |
| 20260510103548 | 12 | 197 | 0.0 | 0.0 | 0.00 | 0.00 | 0.00 | 92 | 1009.2 |
| 20260510103044 | 13 | 212 | 0.0 | 0.0 | 0.00 | 0.00 | 0.00 | 92 | 1009.2 |
| 20260510102540 | 13 | 202 | 0.0 | 0.0 | 0.00 | 0.00 | 0.00 | 91 | 1009.5 |
| 20260510102036 | 13 | 198 | 0.0 | 0.0 | 0.00 | 0.00 | 0.00 | 89 | 1009.3 |
| 20260510101534 | 13 | 214 | 0.0 | 0.0 | 0.00 | 0.00 | 0.00 | 88 | 1009.2 |
| 20260510101033 | 13 | 197 | 0.0 | 0.0 | 0.00 | 0.00 | 0.00 | 88 | 1009.2 |
| 20260510100528 | 14 | 324 | 0.0 | 0.0 | 0.00 | 0.00 | 0.00 | 87 | 1009.1 |
| 20260510100025 | 15 | 197 | 1.6 | 1.6 | 0.00 | 0.00 | 0.00 | 86 | 1009.1 |
| 20260510095521 | 15 | 239 | 0.0 | 1.6 | 0.00 | 0.00 | 0.00 | 80 | 1009.0 |
| 20260510095020 | 14 | 338 | 1.6 | 1.6 | 0.00 | 0.00 | 0.00 | 82 | 1009.2 |
| 20260510094515 | 14 | 299 | 1.6 | 1.6 | 0.00 | 0.00 | 0.00 | 81 | 1009.1 |
| 20260510094011 | 13 | 351 | 4.8 | 4.8 | 0.00 | 0.00 | 0.00 | 82 | 1008.8 |
| 20260510093507 | 14 | 271 | 1.6 | 1.6 | 0.00 | 0.00 | 0.00 | 81 | 1008.5 |
| 20260510093004 | 14 | 271 | 0.0 | 1.6 | 0.00 | 0.00 | 0.00 | 81 | 1008.5 |
| 20260510092501 | 14 | 271 | 0.0 | 0.0 | 0.00 | 0.00 | 0.00 | 81 | 1008.2 |
| 20260510092000 | 14 | 272 | 1.6 | 1.6 | 0.00 | 0.00 | 0.00 | 82 | 1008.3 |
| 20260510091457 | 13 | 272 | 1.6 | 1.6 | 0.00 | 0.00 | 0.00 | 87 | 1008.3 |
| 20260510090953 | 13 | 250 | 0.0 | 0.0 | 0.00 | 0.00 | 0.00 | 90 | 1007.9 |
| 20260510090451 | 13 | 249 | 0.0 | 0.0 | 0.00 | 0.00 | 0.00 | 92 | 1008.1 |
| 20260510085946 | 13 | 229 | 0.0 | 0.0 | 0.00 | 0.00 | 0.00 | 93 | 1008.1 |
| 20260510085441 | 13 | 229 | 0.0 | 0.0 | 0.00 | 0.00 | 0.00 | 94 | 1007.7 |
| 20260510084937 | 13 | 229 | 0.0 | 0.0 | 0.00 | 0.00 | 0.00 | 93 | 1007.9 |
| 20260510084435 | 13 | 229 | 0.0 | 0.0 | 0.00 | 0.00 | 0.00 | 93 | 1007.8 |
| 20260510083931 | 13 | 229 | 0.0 | 0.0 | 0.00 | 0.00 | 0.00 | 93 | 1007.7 |
| 20260510083428 | 13 | 229 | 0.0 | 0.0 | 0.00 | 0.00 | 0.00 | 92 | 1007.7 |
| 20260510082923 | 13 | 229 | 0.0 | 0.0 | 0.00 | 0.00 | 0.00 | 91 | 1007.9 |
| 20260510082421 | 14 | 229 | 0.0 | 0.0 | 0.00 | 0.00 | 0.00 | 91 | 1007.8 |
| 20260510081919 | 14 | 229 | 0.0 | 0.0 | 0.00 | 0.00 | 0.00 | 91 | 1007.9 |
| 20260510081416 | 14 | 229 | 0.0 | 0.0 | 0.00 | 0.00 | 0.00 | 89 | 1007.7 |
| 20260510080912 | 14 | 229 | 0.0 | 0.0 | 0.00 | 0.00 | 0.00 | 82 | 1007.6 |
| 20260510080411 | 15 | 229 | 0.0 | 0.0 | 0.00 | 0.00 | 0.00 | 82 | 1007.4 |
| 20260510075908 | 15 | 228 | 0.0 | 0.0 | 0.00 | 0.00 | 0.00 | 80 | 1007.6 |
| 20260510075406 | 15 | 258 | 0.0 | 0.0 | 0.00 | 0.00 | 0.00 | 79 | 1007.5 |
| 20260510074903 | 15 | 251 | 0.0 | 0.0 | 0.00 | 0.00 | 0.00 | 79 | 1007.3 |
| 20260510074400 | 14 | 242 | 0.0 | 0.0 | 0.00 | 0.00 | 0.00 | 83 | 1007.2 |
| 20260510073856 | 14 | 224 | 0.0 | 0.0 | 0.00 | 0.00 | 0.00 | 86 | 1007.0 |
| 20260510073352 | 15 | 225 | 0.0 | 0.0 | 0.00 | 0.00 | 0.00 | 86 | 1007.2 |
| 20260510072848 | 15 | 224 | 0.0 | 0.0 | 0.00 | 0.00 | 0.00 | 85 | 1007.3 |
| 20260510072345 | 15 | 224 | 0.0 | 0.0 | 0.00 | 0.00 | 0.00 | 83 | 1007.6 |
| 20260510071841 | 15 | 241 | 0.0 | 0.0 | 0.00 | 0.00 | 0.00 | 76 | 1007.7 |
| 20260510071337 | 15 | 244 | 0.0 | 0.0 | 0.00 | 0.00 | 0.00 | 77 | 1007.5 |
| 20260510070836 | 15 | 222 | 0.0 | 0.0 | 0.00 | 0.00 | 0.00 | 79 | 1007.7 |
| 20260510070333 | 16 | 222 | 0.0 | 0.0 | 0.00 | 0.00 | 0.00 | 80 | 1007.7 |
| 20260510065828 | 16 | 222 | 0.0 | 0.0 | 0.00 | 0.00 | 0.00 | 82 | 1007.7 |
| 20260510065325 | 16 | 221 | 0.0 | 1.6 | 0.00 | 0.00 | 0.00 | 79 | 1007.5 |
| 20260510064821 | 16 | 249 | 0.0 | 0.0 | 0.00 | 0.00 | 0.00 | 70 | 1008.0 |
| 20260510064320 | 16 | 250 | 0.0 | 0.0 | 0.00 | 0.00 | 0.00 | 71 | 1007.9 |
| 20260510063815 | 16 | 248 | 0.0 | 0.0 | 0.00 | 0.00 | 0.00 | 70 | 1007.9 |
| 20260510063311 | 16 | 244 | 0.0 | 0.0 | 0.00 | 0.00 | 0.00 | 71 | 1007.7 |
| 20260510062808 | 16 | 220 | 0.0 | 0.0 | 0.00 | 0.00 | 0.00 | 74 | 1007.5 |
| 20260510062306 | 16 | 220 | 0.0 | 0.0 | 0.00 | 0.00 | 0.00 | 71 | 1007.6 |
| 20260510061759 | 17 | 220 | 0.0 | 0.0 | 0.00 | 0.00 | 0.00 | 72 | 1007.6 |
| 20260510061257 | 17 | 244 | 0.0 | 0.0 | 0.00 | 0.00 | 0.00 | 64 | 1007.6 |
| 20260510060752 | 17 | 244 | 0.0 | 0.0 | 0.00 | 0.00 | 0.00 | 64 | 1007.5 |
| 20260510060250 | 17 | 248 | 1.6 | 1.6 | 0.00 | 0.00 | 0.00 | 64 | 1007.6 |
| 20260510055746 | 17 | 248 | 0.0 | 1.6 | 0.00 | 0.00 | 0.00 | 64 | 1007.6 |
| 20260510055245 | 17 | 243 | 0.0 | 0.0 | 0.00 | 0.00 | 0.00 | 66 | 1007.4 |
| 20260510054744 | 17 | 221 | 0.0 | 0.0 | 0.00 | 0.00 | 0.00 | 63 | 1007.3 |
| 20260510054241 | 18 | 240 | 0.0 | 0.0 | 0.00 | 0.00 | 0.00 | 61 | 1007.4 |
| 20260510053740 | 18 | 253 | 0.0 | 1.6 | 0.00 | 0.00 | 0.00 | 61 | 1007.4 |
| 20260510053237 | 18 | 248 | 0.0 | 0.0 | 0.00 | 0.00 | 0.00 | 60 | 1007.4 |
| 20260510052732 | 18 | 236 | 0.0 | 0.0 | 0.00 | 0.00 | 0.00 | 60 | 1007.3 |
| 20260510052229 | 18 | 253 | 1.6 | 1.6 | 0.00 | 0.00 | 0.00 | 58 | 1007.4 |
| 20260510051725 | 18 | 248 | 0.0 | 1.6 | 0.00 | 0.00 | 0.00 | 59 | 1007.3 |
| 20260510051221 | 18 | 237 | 0.0 | 0.0 | 0.00 | 0.00 | 0.00 | 59 | 1007.4 |
| 20260510050718 | 18 | 278 | 4.8 | 6.4 | 0.00 | 0.00 | 0.00 | 59 | 1007.2 |
| 20260510050216 | 18 | 207 | 4.8 | 6.4 | 0.00 | 0.00 | 0.00 | 60 | 1006.9 |
| 20260510045712 | 18 | 216 | 1.6 | 1.6 | 0.00 | 0.00 | 0.00 | 63 | 1007.0 |
| 20260510045209 | 18 | 189 | 1.6 | 1.6 | 0.00 | 0.00 | 0.00 | 65 | 1006.9 |
| 20260510044705 | 17 | 203 | 3.2 | 4.8 | 0.00 | 0.00 | 0.00 | 65 | 1006.9 |
| 20260510044203 | 16 | 199 | 1.6 | 1.6 | 0.00 | 0.00 | 0.00 | 70 | 1006.9 |
| 20260510043658 | 15 | 178 | 3.2 | 3.2 | 0.00 | 0.00 | 0.00 | 78 | 1006.9 |
| 20260510043155 | 15 | 201 | 0.0 | 0.0 | 0.00 | 0.00 | 0.00 | 85 | 1006.7 |
| 20260510042652 | 15 | 215 | 0.0 | 0.0 | 0.00 | 0.00 | 0.00 | 84 | 1006.9 |
| 20260510042148 | 15 | 214 | 0.0 | 0.0 | 0.00 | 0.00 | 0.00 | 82 | 1006.9 |
| 20260510041646 | 16 | 214 | 0.0 | 0.0 | 0.00 | 0.00 | 0.00 | 86 | 1007.0 |
| 20260510041143 | 16 | 215 | 0.0 | 0.0 | 0.00 | 0.00 | 0.00 | 78 | 1006.9 |
| 20260510040640 | 16 | 197 | 0.0 | 0.0 | 0.00 | 0.00 | 0.00 | 79 | 1006.7 |
| 20260510040136 | 16 | 197 | 0.0 | 0.0 | 0.00 | 0.00 | 0.00 | 77 | 1007.2 |
| 20260510035632 | 17 | 196 | 0.0 | 0.0 | 0.00 | 0.00 | 0.00 | 73 | 1006.9 |
| 20260510035127 | 17 | 218 | 0.0 | 0.0 | 0.00 | 0.00 | 0.00 | 69 | 1007.2 |
| 20260510034625 | 18 | 218 | 0.0 | 0.0 | 0.00 | 0.00 | 0.00 | 68 | 1007.2 |
| 20260510034121 | 17 | 209 | 1.6 | 1.6 | 0.00 | 0.00 | 0.00 | 67 | 1007.0 |
| 20260510033618 | 17 | 206 | 1.6 | 3.2 | 0.00 | 0.00 | 0.00 | 70 | 1007.2 |
| 20260510033116 | 16 | 197 | 1.6 | 1.6 | 0.00 | 0.00 | 0.00 | 76 | 1007.2 |
| 20260510032612 | 15 | 198 | 0.0 | 1.6 | 0.00 | 0.00 | 0.00 | 81 | 1007.0 |
| 20260510032107 | 15 | 188 | 1.6 | 1.6 | 0.00 | 0.00 | 0.00 | 83 | 1007.3 |
| 20260510031602 | 15 | 192 | 0.0 | 0.0 | 0.00 | 0.00 | 0.00 | 87 | 1007.2 |
| 20260510031058 | 15 | 200 | 0.0 | 0.0 | 0.00 | 0.00 | 0.00 | 88 | 1007.2 |
| 20260510030548 | 15 | 201 | 0.0 | 0.0 | 0.00 | 0.00 | 0.00 | 89 | 1006.9 |
| 20260510030046 | 15 | 201 | 0.0 | 0.0 | 0.00 | 0.00 | 0.00 | 90 | 1006.8 |
| 20260510025543 | 15 | 201 | 0.0 | 0.0 | 0.00 | 0.00 | 0.00 | 88 | 1006.9 |
| 20260510025040 | 15 | 201 | 0.0 | 0.0 | 0.00 | 0.00 | 0.00 | 85 | 1006.8 |
| 20260510024537 | 15 | 201 | 0.0 | 0.0 | 0.00 | 0.00 | 0.00 | 86 | 1006.8 |
| 20260510024033 | 15 | 202 | 0.0 | 0.0 | 0.00 | 0.00 | 0.00 | 86 | 1006.7 |
| 20260510023529 | 15 | 201 | 0.0 | 1.6 | 0.00 | 0.00 | 0.00 | 86 | 1006.7 |
| 20260510023026 | 16 | 190 | 0.0 | 1.6 | 0.00 | 0.00 | 0.00 | 88 | 1006.7 |
| 20260510022525 | 15 | 189 | 0.0 | 0.0 | 0.00 | 0.00 | 0.00 | 84 | 1006.5 |
| 20260510022020 | 16 | 189 | 0.0 | 0.0 | 0.00 | 0.00 | 0.00 | 85 | 1006.4 |
| 20260510021517 | 16 | 188 | 0.0 | 1.6 | 0.00 | 0.00 | 0.00 | 82 | 1006.5 |
| 20260510021015 | 15 | 153 | 1.6 | 1.6 | 0.00 | 0.00 | 0.00 | 82 | 1006.5 |
| 20260510020509 | 16 | 183 | 1.6 | 1.6 | 0.00 | 0.00 | 0.00 | 83 | 1006.5 |
| 20260510020005 | 16 | 220 | 0.0 | 0.0 | 0.00 | 0.00 | 0.00 | 85 | 1006.4 |
| 20260510015500 | 16 | 221 | 0.0 | 1.6 | 0.00 | 0.00 | 0.00 | 86 | 1006.4 |
| 20260510014956 | 16 | 220 | 0.0 | 0.0 | 0.00 | 0.00 | 0.00 | 83 | 1006.1 |
| 20260510014454 | 17 | 220 | 0.0 | 1.6 | 0.00 | 0.00 | 0.00 | 84 | 1006.0 |
| 20260510013950 | 17 | 237 | 0.0 | 0.0 | 0.00 | 0.00 | 0.00 | 83 | 1006.2 |
| 20260510013445 | 17 | 238 | 0.0 | 0.0 | 0.00 | 0.00 | 0.00 | 82 | 1006.1 |
| 20260510012940 | 17 | 211 | 1.6 | 1.6 | 0.00 | 0.00 | 0.00 | 82 | 1006.1 |
| 20260510012430 | 17 | 207 | 1.6 | 1.6 | 0.00 | 0.00 | 0.00 | 83 | 1006.0 |
| 20260510011925 | 18 | 182 | 0.0 | 0.0 | 0.00 | 0.00 | 0.00 | 82 | 1005.9 |
| 20260510011420 | 18 | 181 | 0.0 | 1.6 | 0.00 | 0.00 | 0.00 | 76 | 1005.8 |
| 20260510010916 | 18 | 187 | 0.0 | 0.0 | 0.00 | 0.00 | 0.00 | 78 | 1005.6 |
| 20260510010414 | 19 | 189 | 0.0 | 0.0 | 0.00 | 0.00 | 0.00 | 76 | 1005.6 |
| 20260510005910 | 19 | 189 | 0.0 | 0.0 | 0.00 | 0.00 | 0.00 | 78 | 1005.7 |
| 20260510005406 | 20 | 188 | 0.0 | 1.6 | 0.00 | 0.00 | 0.00 | 77 | 1005.5 |
| 20260510004904 | 20 | 188 | 0.0 | 0.0 | 0.00 | 0.00 | 0.00 | 72 | 1005.5 |
| 20260510004402 | 21 | 187 | 0.0 | 1.6 | 0.00 | 0.00 | 0.00 | 74 | 1005.6 |
| 20260510003859 | 21 | 207 | 0.0 | 1.6 | 0.00 | 0.00 | 0.00 | 73 | 1005.4 |
| 20260510003356 | 21 | 205 | 1.6 | 1.6 | 0.00 | 0.00 | 0.00 | 74 | 1005.5 |
| 20260510002855 | 22 | 208 | 1.6 | 1.6 | 0.00 | 0.00 | 0.00 | 70 | 1005.5 |
| 20260510002353 | 23 | 199 | 1.6 | 1.6 | 0.00 | 0.00 | 0.00 | 70 | 1005.3 |
| 20260510001849 | 23 | 208 | 0.0 | 1.6 | 0.00 | 0.00 | 0.00 | 67 | 1005.4 |
| 20260510001347 | 24 | 212 | 1.6 | 1.6 | 0.00 | 0.00 | 0.00 | 64 | 1005.3 |
| 20260510000843 | 25 | 209 | 1.6 | 1.6 | 0.00 | 0.00 | 0.00 | 63 | 1005.2 |
| 20260510000341 | 25 | 211 | 1.6 | 1.6 | 0.00 | 0.00 | 0.00 | 50 | 1005.2 |
| 20260509235836 | 25 | 212 | 1.6 | 1.6 | 0.00 | 0.00 | 0.00 | 51 | 1005.1 |
| 20260509235333 | 25 | 207 | 1.6 | 1.6 | 0.00 | 0.00 | 0.00 | 44 | 1005.1 |
| 20260509234829 | 26 | 207 | 3.2 | 3.2 | 0.00 | 0.00 | 0.00 | 42 | 1005.1 |
| 20260509234326 | 26 | 208 | 1.6 | 3.2 | 0.00 | 0.00 | 0.00 | 39 | 1005.1 |
| 20260509233824 | 26 | 208 | 1.6 | 1.6 | 0.00 | 0.00 | 0.00 | 42 | 1005.0 |
| 20260509233321 | 26 | 220 | 1.6 | 1.6 | 0.00 | 0.00 | 0.00 | 41 | 1005.1 |
| 20260509232817 | 26 | 203 | 4.8 | 4.8 | 0.00 | 0.00 | 0.00 | 37 | 1005.0 |
| 20260509232315 | 26 | 208 | 1.6 | 3.2 | 0.00 | 0.00 | 0.00 | 41 | 1004.9 |
| 20260509231811 | 26 | 212 | 3.2 | 3.2 | 0.00 | 0.00 | 0.00 | 38 | 1004.9 |
| 20260509231308 | 26 | 210 | 1.6 | 3.2 | 0.00 | 0.00 | 0.00 | 40 | 1005.1 |
| 20260509230806 | 26 | 197 | 3.2 | 4.8 | 0.00 | 0.00 | 0.00 | 37 | 1004.9 |
| 20260509230302 | 26 | 224 | 1.6 | 1.6 | 0.00 | 0.00 | 0.00 | 41 | 1005.0 |
| 20260509225757 | 27 | 183 | 3.2 | 4.8 | 0.00 | 0.00 | 0.00 | 40 | 1005.0 |
| 20260509225254 | 26 | 205 | 4.8 | 4.8 | 0.00 | 0.00 | 0.00 | 44 | 1005.0 |
| 20260509224750 | 27 | 214 | 3.2 | 3.2 | 0.00 | 0.00 | 0.00 | 38 | 1004.6 |
| 20260509224247 | 26 | 207 | 4.8 | 4.8 | 0.00 | 0.00 | 0.00 | 42 | 1004.9 |
| 20260509223744 | 26 | 210 | 3.2 | 3.2 | 0.00 | 0.00 | 0.00 | 41 | 1005.0 |
| 20260509223241 | 26 | 151 | 4.8 | 4.8 | 0.00 | 0.00 | 0.00 | 39 | 1005.1 |
| 20260509222738 | 26 | 217 | 0.0 | 0.0 | 0.00 | 0.00 | 0.00 | 38 | 1005.0 |
| 20260509222233 | 26 | 191 | 4.8 | 6.4 | 0.00 | 0.00 | 0.00 | 42 | 1005.2 |
| 20260509221728 | 27 | 207 | 9.7 | 9.7 | 0.00 | 0.00 | 0.00 | 40 | 1004.9 |
| 20260509221224 | 27 | 231 | 1.6 | 1.6 | 0.00 | 0.00 | 0.00 | 42 | 1005.0 |
| 20260509220720 | 27 | 216 | 6.4 | 6.4 | 0.00 | 0.00 | 0.00 | 40 | 1005.0 |
| 20260509220218 | 27 | 197 | 3.2 | 4.8 | 0.00 | 0.00 | 0.00 | 42 | 1005.0 |
| 20260509215714 | 27 | 209 | 3.2 | 3.2 | 0.00 | 0.00 | 0.00 | 42 | 1005.1 |
| 20260509215210 | 26 | 182 | 1.6 | 1.6 | 0.00 | 0.00 | 0.00 | 44 | 1005.0 |
| 20260509214707 | 26 | 167 | 4.8 | 4.8 | 0.00 | 0.00 | 0.00 | 43 | 1004.9 |
| 20260509214205 | 26 | 205 | 4.8 | 4.8 | 0.00 | 0.00 | 0.00 | 42 | 1004.5 |
| 20260509213702 | 27 | 185 | 3.2 | 4.8 | 0.00 | 0.00 | 0.00 | 44 | 1004.9 |
| 20260509213157 | 27 | 230 | 4.8 | 9.7 | 0.00 | 0.00 | 0.00 | 40 | 1004.9 |
| 20260509212655 | 27 | 280 | 4.8 | 6.4 | 0.00 | 0.00 | 0.00 | 40 | 1004.9 |
| 20260509212151 | 27 | 322 | 3.2 | 3.2 | 0.00 | 0.00 | 0.00 | 42 | 1004.8 |
| 20260509211647 | 27 | 48 | 3.2 | 3.2 | 0.00 | 0.00 | 0.00 | 45 | 1004.7 |
| 20260509211144 | 27 | 317 | 3.2 | 4.8 | 0.00 | 0.00 | 0.00 | 42 | 1004.8 |
| 20260509210640 | 27 | 342 | 4.8 | 6.4 | 0.00 | 0.00 | 0.00 | 45 | 1004.8 |
| 20260509210132 | 26 | 183 | 1.6 | 1.6 | 0.00 | 0.00 | 0.00 | 45 | 1004.7 |
| 20260509205626 | 27 | 226 | 6.4 | 9.7 | 0.00 | 0.00 | 0.00 | 43 | 1004.8 |
| 20260509205121 | 27 | 335 | 3.2 | 3.2 | 0.00 | 0.00 | 0.00 | 44 | 1004.8 |
| 20260509204618 | 27 | 343 | 6.4 | 9.7 | 0.00 | 0.00 | 0.00 | 43 | 1004.8 |
| 20260509204114 | 27 | 287 | 3.2 | 4.8 | 0.00 | 0.00 | 0.00 | 45 | 1004.7 |
| 20260509203610 | 26 | 252 | 3.2 | 3.2 | 0.00 | 0.00 | 0.00 | 44 | 1004.9 |
| 20260509203108 | 26 | 218 | 3.2 | 4.8 | 0.00 | 0.00 | 0.00 | 44 | 1004.9 |
| 20260509202602 | 27 | 191 | 9.7 | 11.3 | 0.00 | 0.00 | 0.00 | 46 | 1004.6 |
| 20260509202058 | 27 | 199 | 1.6 | 1.6 | 0.00 | 0.00 | 0.00 | 45 | 1004.9 |
| 20260509201553 | 27 | 277 | 6.4 | 6.4 | 0.00 | 0.00 | 0.00 | 44 | 1005.0 |
| 20260509201051 | 27 | 190 | 1.6 | 1.6 | 0.00 | 0.00 | 0.00 | 52 | 1005.0 |
| 20260509200550 | 26 | 140 | 3.2 | 4.8 | 0.00 | 0.00 | 0.00 | 45 | 1005.2 |
| 20260509200047 | 27 | 168 | 4.8 | 4.8 | 0.00 | 0.00 | 0.00 | 50 | 1005.3 |
| 20260509195543 | 26 | 186 | 4.8 | 4.8 | 0.00 | 0.00 | 0.00 | 52 | 1004.9 |
| 20260509195038 | 26 | 194 | 3.2 | 3.2 | 0.00 | 0.00 | 0.00 | 52 | 1005.1 |
| 20260509194533 | 26 | 205 | 3.2 | 3.2 | 0.00 | 0.00 | 0.00 | 50 | 1005.3 |
| 20260509194030 | 26 | 173 | 11.3 | 12.9 | 0.00 | 0.00 | 0.00 | 53 | 1005.4 |
| 20260509193525 | 27 | 222 | 3.2 | 3.2 | 0.00 | 0.00 | 0.00 | 50 | 1005.4 |
| 20260509193022 | 27 | 280 | 3.2 | 3.2 | 0.00 | 0.00 | 0.00 | 45 | 1005.6 |
| 20260509192519 | 26 | 259 | 0.0 | 0.0 | 0.00 | 0.00 | 0.00 | 50 | 1005.7 |
| 20260509192013 | 26 | 83 | 3.2 | 4.8 | 0.00 | 0.00 | 0.00 | 47 | 1005.5 |
| 20260509191508 | 26 | 177 | 3.2 | 3.2 | 0.00 | 0.00 | 0.00 | 51 | 1005.5 |
| 20260509191004 | 26 | 264 | 4.8 | 4.8 | 0.00 | 0.00 | 0.00 | 50 | 1005.7 |